createdAt,value
2019-05-19T00:02:33.487Z,70.17
2019-05-19T00:07:38.968Z,69.97
2019-05-19T00:12:44.034Z,69.84
2019-05-19T00:17:49.440Z,70.04
2019-05-19T00:22:58.709Z,69.63
2019-05-19T00:28:03.845Z,69.82
2019-05-19T00:33:08.891Z,70.01
2019-05-19T00:38:14.032Z,69.82
2019-05-19T00:43:19.103Z,70.14
2019-05-19T00:48:24.528Z,69.94
2019-05-19T00:53:29.618Z,70.35
2019-05-19T00:58:34.938Z,70.33
2019-05-19T01:03:40.230Z,70.11
2019-05-19T01:08:50.398Z,70.22
2019-05-19T01:13:55.828Z,70.31
2019-05-19T01:19:01.024Z,70.31
2019-05-19T01:24:06.075Z,70.46
2019-05-19T01:29:11.159Z,70.41
2019-05-19T01:34:16.264Z,70.64
2019-05-19T01:39:21.304Z,70.72
2019-05-19T01:44:26.366Z,70.79
2019-05-19T01:49:31.420Z,70.50
2019-05-19T01:54:36.405Z,71.29
2019-05-19T01:59:41.426Z,71.56
2019-05-19T02:04:46.718Z,71.76
2019-05-19T02:09:51.834Z,72.37
2019-05-19T02:14:57.284Z,72.23
2019-05-19T02:20:02.437Z,72.32
2019-05-19T02:25:07.694Z,72.77
2019-05-19T02:30:14.846Z,73.36
2019-05-19T02:35:21.024Z,73.38
2019-05-19T02:40:28.435Z,73.41
2019-05-19T02:45:35.226Z,73.63
2019-05-19T02:50:52.419Z,74.08
2019-05-19T02:55:50.236Z,74.42
2019-05-19T03:00:57.004Z,74.38
2019-05-19T03:06:05.892Z,74.93
2019-05-19T03:11:12.062Z,75.35
2019-05-19T03:16:17.113Z,75.76
2019-05-19T03:21:23.255Z,75.07
2019-05-19T03:26:28.298Z,74.95
2019-05-19T03:31:40.656Z,75.35
2019-05-19T03:36:45.702Z,75.53
2019-05-19T03:41:52.393Z,75.61
2019-05-19T03:46:57.454Z,75.41
2019-05-19T03:52:02.470Z,76.34
2019-05-19T03:57:07.509Z,75.89
2019-05-19T04:02:12.571Z,76.82
2019-05-19T04:07:19.216Z,77.24
2019-05-19T04:12:24.293Z,76.94
2019-05-19T04:17:29.625Z,77.36
2019-05-19T04:22:34.724Z,77.29
2019-05-19T04:27:42.906Z,77.31
2019-05-19T04:32:49.612Z,78.23
2019-05-19T04:37:54.661Z,78.08
2019-05-19T04:43:00.073Z,78.54
2019-05-19T04:48:09.195Z,78.48
2019-05-19T04:53:12.267Z,78.29
2019-05-19T04:58:18.673Z,78.19
2019-05-19T05:03:24.393Z,77.75
2019-05-19T05:08:36.047Z,77.70
2019-05-19T05:13:42.633Z,77.48
2019-05-19T05:18:48.078Z,77.62
2019-05-19T05:23:56.519Z,77.96
2019-05-19T05:29:02.298Z,78.29
2019-05-19T05:34:08.796Z,78.29
2019-05-19T05:39:16.652Z,77.76
2019-05-19T05:44:21.786Z,77.44
2019-05-19T05:49:27.360Z,77.79
2019-05-19T05:54:32.378Z,77.82
2019-05-19T05:59:37.404Z,77.81
2019-05-19T06:04:42.474Z,77.94
2019-05-19T06:09:51.167Z,78.23
2019-05-19T06:14:56.274Z,77.84
2019-05-19T06:20:01.907Z,78.49
2019-05-19T06:25:07.633Z,79.14
2019-05-19T06:30:12.679Z,78.52
2019-05-19T06:35:18.964Z,77.09
2019-05-19T06:40:25.020Z,76.89
2019-05-19T06:45:33.015Z,76.34
2019-05-19T06:50:40.791Z,75.86
2019-05-19T06:55:46.236Z,75.08
2019-05-19T07:00:51.365Z,74.39
2019-05-19T07:05:56.706Z,73.94
2019-05-19T07:11:01.771Z,73.13
2019-05-19T07:16:06.868Z,73.04
2019-05-19T07:21:11.952Z,72.78
2019-05-19T07:26:18.507Z,72.59
2019-05-19T07:31:23.675Z,71.23
2019-05-19T07:36:28.769Z,70.74
2019-05-19T07:41:34.276Z,70.81
2019-05-19T07:46:41.407Z,70.39
2019-05-19T07:51:46.495Z,70.00
2019-05-19T07:56:51.664Z,68.98
2019-05-19T08:01:56.863Z,68.95
2019-05-19T08:07:02.430Z,67.35
2019-05-19T08:12:25.758Z,66.49
2019-05-19T08:17:30.965Z,66.76
2019-05-19T08:22:37.210Z,66.60
2019-05-19T08:27:42.710Z,66.20
2019-05-19T08:32:47.864Z,66.14
2019-05-19T08:37:52.862Z,65.54
2019-05-19T08:42:57.922Z,66.18
2019-05-19T08:48:03.046Z,64.89
2019-05-19T08:53:08.633Z,65.76
2019-05-19T08:58:16.222Z,64.36
2019-05-19T09:03:22.634Z,63.71
2019-05-19T09:08:28.031Z,64.03
2019-05-19T09:13:35.769Z,64.23
2019-05-19T09:18:42.862Z,62.73
2019-05-19T09:23:48.798Z,63.24
2019-05-19T09:29:02.711Z,64.10
2019-05-19T09:34:10.375Z,65.18
2019-05-19T09:39:15.937Z,63.96
2019-05-19T09:44:26.961Z,63.37
2019-05-19T09:49:39.611Z,63.11
2019-05-19T09:54:46.195Z,61.07
2019-05-19T09:59:51.612Z,60.40
2019-05-19T10:04:57.755Z,62.10
2019-05-19T10:10:47.195Z,61.02
2019-05-19T10:15:53.247Z,59.45
2019-05-19T10:20:58.391Z,58.41
2019-05-19T10:26:04.080Z,56.46
2019-05-19T10:31:10.864Z,56.47
2019-05-19T10:36:16.001Z,55.93
2019-05-19T10:41:23.016Z,55.93
2019-05-19T10:46:28.515Z,53.74
2019-05-19T10:51:34.268Z,53.52
2019-05-19T10:56:39.298Z,50.75
2019-05-19T11:01:44.457Z,49.23
2019-05-19T11:06:51.184Z,50.36
2019-05-19T11:11:58.923Z,50.72
2019-05-19T11:17:04.322Z,48.63
2019-05-19T11:22:09.409Z,48.72
2019-05-19T11:27:15.090Z,49.35
2019-05-19T11:32:20.140Z,47.86
2019-05-19T11:37:25.267Z,47.67
2019-05-19T11:42:30.422Z,46.05
2019-05-19T11:47:35.783Z,44.70
2019-05-19T11:52:40.916Z,44.44
2019-05-19T11:57:46.080Z,41.94
2019-05-19T12:02:51.370Z,41.76
2019-05-19T12:07:56.693Z,40.63
2019-05-19T12:13:01.796Z,40.52
2019-05-19T12:18:06.941Z,40.40
2019-05-19T12:23:13.517Z,40.65
2019-05-19T12:28:18.575Z,42.95
2019-05-19T12:33:25.196Z,43.08
2019-05-19T12:38:30.270Z,41.88
2019-05-19T12:43:36.316Z,43.33
2019-05-19T12:48:41.517Z,42.24
2019-05-19T12:53:47.450Z,41.14
2019-05-19T12:58:52.730Z,39.18
2019-05-19T13:03:58.320Z,38.70
2019-05-19T13:09:05.111Z,39.12
2019-05-19T13:14:10.673Z,38.60
2019-05-19T13:19:15.687Z,37.13
2019-05-19T13:24:21.054Z,37.13
2019-05-19T13:29:26.236Z,37.54
2019-05-19T13:34:31.308Z,38.68
2019-05-19T13:39:37.369Z,37.99
2019-05-19T13:44:42.514Z,37.28
2019-05-19T13:49:48.432Z,37.25
2019-05-19T13:54:53.542Z,36.92
2019-05-19T14:00:11.876Z,36.81
2019-05-19T14:05:17.092Z,36.27
2019-05-19T14:10:22.210Z,36.55
2019-05-19T14:15:27.337Z,37.22
2019-05-19T14:20:32.419Z,38.02
2019-05-19T14:25:37.783Z,38.18
2019-05-19T14:30:43.273Z,38.43
2019-05-19T14:35:48.700Z,39.64
2019-05-19T14:40:53.823Z,40.33
2019-05-19T14:45:58.881Z,39.42
2019-05-19T14:51:05.207Z,39.01
2019-05-19T14:56:10.809Z,38.41
2019-05-19T15:01:16.745Z,37.79
2019-05-19T15:06:56.705Z,38.09
2019-05-19T15:12:15.837Z,38.83
2019-05-19T15:17:20.929Z,38.70
2019-05-19T15:22:25.971Z,37.98
2019-05-19T15:27:35.913Z,38.07
2019-05-19T15:32:42.265Z,39.19
2019-05-19T15:37:48.425Z,39.98
2019-05-19T15:48:48.319Z,40.13
2019-05-19T15:59:17.001Z,40.47
2019-05-19T16:04:34.469Z,41.13
2019-05-19T16:15:48.240Z,41.31
2019-05-19T16:20:57.092Z,40.05
2019-05-19T16:26:17.835Z,39.81
2019-05-19T16:31:31.369Z,40.30
2019-05-19T16:36:36.914Z,40.34
2019-05-19T16:41:42.683Z,40.43
2019-05-19T16:46:53.567Z,40.05
2019-05-19T16:51:59.727Z,41.24
2019-05-19T16:57:06.056Z,41.33
2019-05-19T17:02:11.234Z,41.00
2019-05-19T17:07:20.232Z,41.21
2019-05-19T17:12:25.972Z,41.15
2019-05-19T17:17:31.150Z,40.61
2019-05-19T17:22:36.437Z,40.52
2019-05-19T17:28:21.763Z,41.07
2019-05-19T17:33:27.516Z,41.68
2019-05-19T17:38:34.357Z,41.23
2019-05-19T17:43:42.138Z,41.15
2019-05-19T17:49:12.754Z,41.79
2019-05-19T17:54:29.536Z,42.13
2019-05-19T17:59:38.033Z,42.88
2019-05-19T18:04:45.526Z,43.64
2019-05-19T18:09:55.221Z,43.83
2019-05-19T18:15:03.295Z,43.98
2019-05-19T18:20:29.425Z,43.48
2019-05-19T18:26:00.727Z,43.30
2019-05-19T18:31:31.014Z,43.60
2019-05-19T18:36:35.784Z,43.98
2019-05-19T18:41:51.829Z,44.32
2019-05-19T18:47:19.391Z,43.97
2019-05-19T18:52:34.652Z,44.14
2019-05-19T18:57:39.974Z,44.08
2019-05-19T19:02:53.503Z,44.57
2019-05-19T19:07:59.247Z,44.41
2019-05-19T19:13:11.009Z,44.68
2019-05-19T19:18:16.878Z,44.74
2019-05-19T19:29:09.565Z,45.52
2019-05-19T19:34:17.634Z,46.16
2019-05-19T19:39:23.531Z,46.33
2019-05-19T19:44:29.631Z,46.92
2019-05-19T19:49:48.407Z,47.22
2019-05-19T19:55:49.175Z,47.92
2019-05-19T20:00:43.800Z,48.25
2019-05-19T20:05:50.440Z,49.74
2019-05-19T20:10:58.316Z,49.74
2019-05-19T20:16:06.711Z,49.70
2019-05-19T20:21:14.900Z,50.18
2019-05-19T20:26:20.561Z,50.79
2019-05-19T20:31:25.685Z,51.31
2019-05-19T20:36:32.460Z,51.62
2019-05-19T20:41:54.006Z,52.21
2019-05-19T20:46:59.650Z,53.04
2019-05-19T20:52:07.106Z,53.70
2019-05-19T20:57:12.936Z,53.88
2019-05-19T21:02:18.881Z,54.61
2019-05-19T21:07:29.742Z,54.58
2019-05-19T21:12:36.077Z,54.06
2019-05-19T21:17:42.285Z,54.32
2019-05-19T21:22:47.927Z,54.33
2019-05-19T21:27:54.307Z,54.93
2019-05-19T21:33:03.390Z,55.43
2019-05-19T21:38:12.048Z,56.48
2019-05-19T21:43:18.446Z,56.98
2019-05-19T21:48:35.099Z,57.56
2019-05-19T21:53:41.223Z,58.07
2019-05-19T21:58:54.514Z,59.10
2019-05-19T22:04:03.881Z,59.86
2019-05-19T22:09:13.193Z,61.50
2019-05-19T22:14:18.618Z,62.47
2019-05-19T22:19:27.978Z,63.35
2019-05-19T22:24:35.281Z,64.39
2019-05-19T22:29:40.464Z,64.03
2019-05-19T22:34:45.521Z,64.33
2019-05-19T22:39:51.700Z,64.95
2019-05-19T22:44:58.140Z,65.59
2019-05-19T22:50:06.947Z,65.75
2019-05-19T22:55:13.535Z,65.76
2019-05-19T23:00:21.537Z,66.25
2019-05-19T23:05:26.577Z,66.48
2019-05-19T23:10:31.941Z,66.73
2019-05-19T23:15:40.743Z,66.81
2019-05-19T23:21:15.678Z,67.25
2019-05-19T23:26:21.612Z,67.87
2019-05-19T23:31:50.848Z,67.89
2019-05-19T23:36:55.937Z,67.73
2019-05-19T23:42:01.022Z,67.71
2019-05-19T23:47:06.606Z,67.82
2019-05-19T23:52:12.169Z,68.34
2019-05-19T23:57:17.649Z,68.44
